Jacob, Illinois
Current Conditions -  °F | °C
As of 7:52 AM on Thursday 29 Jan 2015 (Local Time) from KMDH Reporting Station
Few Clouds Few Clouds  
Wind Chill: 50°   Ceiling: Unl
Heat Index: 50°   Visibility: 10mi
Dew Point: 39°   Wind: 12mph
Humidity: 66%   Direction: 310°NW
Pressure: 29.96"   Gusts: NA
Location:  37.74°N, 89.54°W
Report Text: KMDH 291352Z 31010KT 10SM FEW037 10/04 A2996 RMK AO2 SLP147 T01000039
Loading
Personal Weather Stations






























Interactive Weather Map New forecast layout! Learn more

10-Day Weather Forecast

Advertisements
Track Severe Weather on mobile